Time;durP1;ratioP1;P1;durP2;ratioP2;P2;SDS_P1;SDS_P2;PMS_P1;PMS_P2;Temp;Humidity;BMP_temperature;BMP_pressure;BME280_temperature;BME280_humidity;BME280_pressure;Samples;Min_cycle;Max_cycle;Signal;HPM_P1;HPM_P2
2022/12/07 03:04:36;;;;;;;34.85;31.65;;;;;;;4.73;68.77;93925.44;1808367;78;21087;-44
2022/12/07 03:07:31;;;;;;;15.08;13.85;;;;;;;4.73;68.31;93922.12;1786146;79;21265;-43
2022/12/07 03:10:23;;;;;;;5.83;5.42;;;;;;;4.75;67.65;93912.92;1795978;80;20983;-43
2022/12/07 03:13:04;;;;;;;23.50;21.50;;;;;;;4.77;67.76;93915.98;1811871;78;21014;-42
2022/12/07 03:15:37;;;;;;;9.18;8.38;;;;;;;4.76;68.21;93917.17;1796554;78;21021;-44
2022/12/07 03:18:04;;;;;;;18.27;16.45;;;;;;;4.71;68.37;93916.93;1796454;78;21003;-43
2022/12/07 03:20:31;;;;;;;11.97;10.78;;;;;;;4.66;68.55;93909.29;1803571;78;21294;-43
2022/12/07 03:22:58;;;;;;;9.15;7.15;;;;;;;4.61;68.66;93906.48;1788402;78;21119;-42
2022/12/07 03:25:25;;;;;;;6.33;5.83;;;;;;;4.55;68.45;93895.95;1789027;79;21013;-43
2022/12/07 03:27:58;;;;;;;8.63;7.08;;;;;;;4.48;68.27;93894.79;1792800;78;20974;-43
2022/12/07 03:30:38;;;;;;;6.20;5.60;;;;;;;4.45;69.20;93909.23;1796593;78;20957;-43
2022/12/07 03:33:22;;;;;;;6.35;5.55;;;;;;;4.38;69.65;93910.79;1810407;78;21159;-43
2022/12/07 03:36:07;;;;;;;9.55;7.30;;;;;;;4.30;69.43;93912.75;1780300;79;20938;-43
2022/12/07 03:38:38;;;;;;;7.20;6.50;;;;;;;4.23;70.99;93902.80;1762768;80;21168;-43
2022/12/07 03:41:23;;;;;;;7.33;6.58;;;;;;;4.13;71.62;93907.93;1764342;80;21017;-44
2022/12/07 03:43:49;;;;;;;11.53;8.93;;;;;;;4.07;72.28;93917.03;1788262;80;21017;-43
2022/12/07 03:46:39;;;;;;;25.10;17.20;;;;;;;4.00;72.92;93922.05;1762318;79;21253;-44
2022/12/07 03:49:23;;;;;;;41.37;24.90;;;;;;;3.94;73.75;93916.95;1773206;80;20937;-42
2022/12/07 03:52:19;;;;;;;35.17;23.12;;;;;;;3.84;75.05;93917.95;1776060;80;21002;-43
2022/12/07 03:55:12;;;;;;;55.45;35.25;;;;;;;3.75;75.72;93924.59;1675236;85;21046;-43
2022/12/07 03:57:39;;;;;;;60.98;34.65;;;;;;;3.64;76.49;93911.81;1673980;84;21017;-43
2022/12/07 04:00:08;;;;;;;43.38;25.05;;;;;;;3.51;77.21;93923.17;1663906;84;22143;-43
2022/12/07 04:02:41;;;;;;;36.77;23.52;;;;;;;3.48;77.73;93925.98;1647253;85;21126;-44
2022/12/07 04:05:09;;;;;;;41.42;25.27;;;;;;;3.47;78.40;93919.59;1665720;84;21116;-43
2022/12/07 04:07:36;;;;;;;41.28;23.57;;;;;;;3.49;78.32;93912.56;1665667;84;21014;-44
2022/12/07 04:10:05;;;;;;;43.92;24.45;;;;;;;3.45;78.13;93914.57;1661873;83;21013;-43
2022/12/07 04:12:32;;;;;;;31.42;18.70;;;;;;;3.44;78.19;93919.09;1665872;84;21764;-44
2022/12/07 04:14:59;;;;;;;39.40;21.82;;;;;;;3.40;78.40;93912.97;1665855;85;20991;-44
2022/12/07 04:17:25;;;;;;;39.53;24.20;;;;;;;3.39;78.46;93925.78;1678255;84;20991;-44
2022/12/07 04:19:53;;;;;;;48.85;27.45;;;;;;;3.43;78.74;93914.84;1661910;85;21002;-43
2022/12/07 04:22:20;;;;;;;57.40;28.35;;;;;;;3.48;78.78;93904.81;1663445;85;21049;-44
2022/12/07 04:24:48;;;;;;;41.08;24.95;;;;;;;3.48;78.63;93911.78;1671990;84;21145;-43
2022/12/07 04:27:15;;;;;;;35.52;22.90;;;;;;;3.46;78.68;93913.38;1631148;86;20999;-44
2022/12/07 04:29:42;;;;;;;30.40;18.62;;;;;;;3.42;78.96;93914.67;1618987;86;21226;-43
2022/12/07 04:32:09;;;;;;;23.10;15.65;;;;;;;3.31;79.15;93915.48;1712735;82;21086;-43
2022/12/07 04:34:36;;;;;;;25.35;15.78;;;;;;;3.23;79.33;93914.86;1695761;82;20960;-44
2022/12/07 04:37:02;;;;;;;19.00;12.93;;;;;;;3.23;79.78;93920.91;1719348;81;21271;-43
2022/12/07 04:39:31;;;;;;;15.78;11.45;;;;;;;3.26;79.86;93919.45;1717793;82;21703;-43
2022/12/07 04:41:58;;;;;;;20.75;15.30;;;;;;;3.22;79.94;93925.56;1730993;81;21084;-44
2022/12/07 04:44:25;;;;;;;24.70;17.25;;;;;;;3.19;80.36;93922.33;1726728;81;21041;-43
2022/12/07 04:46:52;;;;;;;26.95;16.32;;;;;;;3.12;81.17;93924.42;1731002;81;21089;-44
2022/12/07 04:49:19;;;;;;;25.88;18.85;;;;;;;3.03;81.39;93922.88;1728989;82;21100;-45
2022/12/07 04:51:46;;;;;;;25.92;17.62;;;;;;;3.00;81.82;93934.55;1724209;82;21614;-44
2022/12/07 04:54:14;;;;;;;23.92;15.93;;;;;;;2.99;81.99;93937.10;1749374;82;20958;-45
2022/12/07 04:56:40;;;;;;;19.55;13.50;;;;;;;3.02;82.00;93947.16;1739274;81;21080;-44
2022/12/07 04:59:07;;;;;;;15.25;12.05;;;;;;;3.04;81.98;93931.95;1730587;81;21626;-44
2022/12/07 05:01:34;;;;;;;17.15;11.68;;;;;;;3.02;81.75;93936.28;1751741;81;21219;-44
2022/12/07 05:04:01;;;;;;;20.50;14.40;;;;;;;3.03;81.72;93938.56;1740537;81;21502;-44
2022/12/07 05:06:28;;;;;;;15.78;11.95;;;;;;;3.06;81.33;93947.23;1731411;82;21003;-43
2022/12/07 05:08:54;;;;;;;18.15;11.80;;;;;;;2.98;81.28;93949.93;1728888;81;21038;-44
2022/12/07 05:11:39;;;;;;;41.48;23.20;;;;;;;2.94;81.65;93945.74;1734428;82;21065;-45
2022/12/07 05:14:12;;;;;;;19.65;14.25;;;;;;;2.90;81.94;93953.95;1798217;79;22110;-45
2022/12/07 05:16:39;;;;;;;25.37;18.23;;;;;;;2.87;82.19;93957.50;1800342;79;27345;-44
2022/12/07 05:19:06;;;;;;;28.73;18.98;;;;;;;2.88;82.63;93956.92;1803073;78;21045;-46
2022/12/07 05:21:33;;;;;;;34.40;23.00;;;;;;;2.88;82.62;93959.03;1801051;79;21549;-44
2022/12/07 05:23:59;;;;;;;47.88;30.43;;;;;;;2.87;82.86;93962.94;1808218;78;20957;-46
2022/12/07 05:26:26;;;;;;;34.58;23.32;;;;;;;2.94;83.18;93960.68;1809817;79;21138;-46
2022/12/07 05:28:54;;;;;;;31.57;22.07;;;;;;;3.02;82.85;93952.59;1793120;78;21572;-45
2022/12/07 05:31:21;;;;;;;24.05;17.45;;;;;;;3.05;82.45;93949.03;1790262;78;21152;-46
2022/12/07 05:33:48;;;;;;;28.87;20.50;;;;;;;3.07;82.25;93952.84;1802913;78;20954;-43
2022/12/07 05:36:15;;;;;;;28.80;21.77;;;;;;;3.17;82.18;93960.61;1787006;78;21497;-43
2022/12/07 05:38:41;;;;;;;35.48;21.55;;;;;;;3.26;81.69;93958.11;1815355;79;21510;-44
2022/12/07 05:42:11;;;;;;;33.40;21.20;;;;;;;3.27;81.43;93959.64;1805105;78;20981;-45
2022/12/07 05:43:37;;;;;;;32.33;19.35;;;;;;;3.32;81.51;93965.93;1807472;79;21029;-46
2022/12/07 05:46:04;;;;;;;38.80;23.60;;;;;;;3.36;81.35;93970.69;1810275;79;20997;-45
2022/12/07 05:48:31;;;;;;;40.50;23.22;;;;;;;3.36;80.71;93969.33;1807175;79;20959;-45
2022/12/07 05:50:58;;;;;;;32.60;21.07;;;;;;;3.35;80.87;93963.73;1787053;78;21252;-43
2022/12/07 05:53:25;;;;;;;33.92;22.85;;;;;;;3.36;80.56;93973.41;1760185;80;21037;-45
2022/12/07 05:55:52;;;;;;;38.17;23.52;;;;;;;3.36;80.80;93985.06;1755343;80;21009;-48
2022/12/07 06:01:04;;;;;;;23.02;15.93;;;;;;;3.36;80.19;93986.42;1769086;79;21030;-47
2022/12/07 06:03:32;;;;;;;27.17;17.57;;;;;;;3.30;80.04;93978.59;1756564;80;22159;-43
2022/12/07 06:05:59;;;;;;;36.80;22.90;;;;;;;3.33;80.09;93975.61;1755917;80;21616;-44
2022/12/07 06:08:25;;;;;;;41.95;23.85;;;;;;;3.35;80.28;93984.89;1749344;80;21080;-43
2022/12/07 06:12:33;;;;;;;42.95;25.45;;;;;;;3.42;80.38;93985.34;1748818;80;21085;-44
2022/12/07 06:13:21;;;;;;;44.60;28.62;;;;;;;3.42;80.08;93982.63;1754316;80;21732;-44
2022/12/07 06:15:48;;;;;;;35.92;22.15;;;;;;;3.37;80.12;93985.81;1747510;79;21442;-44
2022/12/07 06:18:14;;;;;;;43.30;26.65;;;;;;;3.39;80.27;93995.70;1775342;80;21439;-44
2022/12/07 06:20:41;;;;;;;149.55;78.70;;;;;;;3.46;80.33;93998.27;1757378;80;21467;-44
2022/12/07 06:23:08;;;;;;;82.82;45.70;;;;;;;3.52;79.98;93993.28;1727565;81;21066;-46
2022/12/07 06:25:35;;;;;;;67.85;40.80;;;;;;;3.55;80.00;93990.47;1756227;79;21012;-44
2022/12/07 06:28:01;;;;;;;65.57;37.90;;;;;;;3.65;79.81;93987.37;1773228;80;21241;-44
2022/12/07 06:30:28;;;;;;;64.97;38.45;;;;;;;3.67;79.29;93991.80;1759034;80;21120;-44
2022/12/07 06:32:55;;;;;;;53.20;33.67;;;;;;;3.65;79.07;93997.64;1766509;80;21179;-44
2022/12/07 06:35:26;;;;;;;76.02;46.77;;;;;;;3.56;78.92;93997.46;1764435;80;21017;-43
2022/12/07 06:37:53;;;;;;;68.90;42.93;;;;;;;3.53;79.38;94004.33;1755915;79;21013;-45
2022/12/07 06:40:21;;;;;;;93.75;54.83;;;;;;;3.58;79.66;94003.24;1771208;79;22169;-47
2022/12/07 06:42:47;;;;;;;100.45;63.10;;;;;;;3.64;80.01;94002.13;1744550;80;21544;-46
2022/12/07 06:45:15;;;;;;;81.15;51.73;;;;;;;3.73;79.77;94007.78;1777573;78;21147;-47
2022/12/07 06:47:42;;;;;;;68.07;39.15;;;;;;;3.78;79.29;94015.43;1786391;78;21072;-45
2022/12/07 06:50:09;;;;;;;49.60;27.80;;;;;;;3.71;76.61;94009.55;1739047;80;21612;-45
2022/12/07 06:52:36;;;;;;;63.55;42.38;;;;;;;3.66;76.25;94010.05;1725215;82;22291;-49
2022/12/07 06:55:04;;;;;;;62.30;40.33;;;;;;;3.71;75.85;94010.16;1756701;80;21048;-48
2022/12/07 06:57:31;;;;;;;28.73;22.77;;;;;;;3.80;75.71;94019.27;1781848;79;21212;-45
2022/12/07 06:59:59;;;;;;;46.33;34.40;;;;;;;3.90;75.30;94021.59;1787833;79;21144;-48
2022/12/07 07:02:26;;;;;;;66.00;42.58;;;;;;;4.04;75.34;94023.40;1765659;80;21108;-46
2022/12/07 07:04:53;;;;;;;44.77;27.85;;;;;;;4.20;74.90;94024.78;1769459;79;21275;-47
2022/12/07 07:07:25;;;;;;;91.42;73.17;;;;;;;4.31;74.03;94015.78;1757369;79;21092;-49
2022/12/07 07:09:56;;;;;;;45.43;39.80;;;;;;;4.36;73.78;94024.80;1759823;79;21097;-50
2022/12/07 07:12:23;;;;;;;17.85;15.98;;;;;;;4.45;73.79;94019.52;1757398;79;21036;-47
2022/12/07 07:14:50;;;;;;;23.07;18.77;;;;;;;4.55;73.25;94013.64;1775739;79;21022;-45
2022/12/07 07:17:16;;;;;;;41.20;25.12;;;;;;;4.61;73.35;94007.87;1770918;79;21176;-46
2022/12/07 07:19:43;;;;;;;36.85;26.15;;;;;;;4.68;72.74;94018.00;1779548;79;21017;-46
2022/12/07 07:22:10;;;;;;;43.35;31.15;;;;;;;4.70;72.59;94023.00;1736751;80;21372;-45
2022/12/07 07:24:37;;;;;;;44.73;31.00;;;;;;;4.76;72.58;94017.98;1722261;81;21046;-47
2022/12/07 07:27:04;;;;;;;35.68;23.15;;;;;;;4.83;72.27;94019.76;1739488;82;21065;-48
2022/12/07 07:29:30;;;;;;;26.35;18.27;;;;;;;4.87;72.02;94033.47;1722983;82;21261;-47
2022/12/07 07:31:57;;;;;;;14.25;11.08;;;;;;;4.83;71.81;94025.20;1710414;82;21105;-51
2022/12/07 07:34:25;;;;;;;23.45;16.60;;;;;;;4.77;71.95;94018.14;1714051;81;21549;-46
2022/12/07 07:36:51;;;;;;;30.57;21.00;;;;;;;4.73;72.03;94026.23;1712445;81;21512;-45
2022/12/07 07:39:18;;;;;;;50.52;34.10;;;;;;;4.73;72.35;94027.01;1724136;81;22212;-46
2022/12/07 07:41:45;;;;;;;42.45;28.85;;;;;;;4.75;72.51;94027.95;1753619;80;21228;-48
2022/12/07 07:44:13;;;;;;;33.65;23.18;;;;;;;4.81;72.52;94015.34;1781749;80;21048;-46
2022/12/07 07:46:40;;;;;;;22.82;17.70;;;;;;;4.84;72.61;94020.70;1788172;78;21396;-46
2022/12/07 07:49:09;;;;;;;24.23;18.12;;;;;;;4.84;72.58;94013.89;1777141;78;21692;-56
2022/12/07 07:51:36;;;;;;;34.95;22.87;;;;;;;4.87;72.80;94021.79;1775982;78;21091;-51
2022/12/07 07:54:03;;;;;;;32.17;20.85;;;;;;;4.86;72.77;94022.41;1782063;79;21157;-47
2022/12/07 07:56:30;;;;;;;31.87;18.45;;;;;;;4.81;73.08;94020.78;1749234;80;21260;-47
2022/12/07 07:58:57;;;;;;;20.15;14.18;;;;;;;4.74;73.22;94027.17;1744999;81;21092;-45
2022/12/07 08:01:24;;;;;;;22.73;16.55;;;;;;;4.65;73.46;94027.03;1730493;80;21096;-48
2022/12/07 08:03:50;;;;;;;19.60;14.25;;;;;;;4.62;73.90;94026.49;1780377;78;21086;-47
2022/12/07 08:06:17;;;;;;;15.65;13.43;;;;;;;4.63;74.07;94025.30;1773616;80;21579;-46
2022/12/07 08:08:44;;;;;;;14.98;13.03;;;;;;;4.61;74.19;94020.88;1769364;78;21040;-48
2022/12/07 08:11:13;;;;;;;14.73;12.05;;;;;;;4.58;74.29;94021.73;1784723;78;21002;-51
2022/12/07 08:13:41;;;;;;;18.98;15.40;;;;;;;4.54;74.44;94026.51;1780109;78;21612;-47
2022/12/07 08:16:10;;;;;;;24.43;17.20;;;;;;;4.50;75.02;94018.25;1788343;78;21077;-48
2022/12/07 08:18:39;;;;;;;19.20;13.80;;;;;;;4.50;75.37;94025.83;1781476;78;21096;-47
2022/12/07 08:21:07;;;;;;;15.40;11.80;;;;;;;4.48;75.55;94021.41;1682888;82;21597;-48
2022/12/07 08:23:34;;;;;;;13.75;11.05;;;;;;;4.45;75.59;94020.13;1682983;81;21668;-44
2022/12/07 08:26:04;;;;;;;17.27;12.70;;;;;;;4.36;75.75;94028.89;1701143;81;21103;-43
2022/12/07 08:28:32;;;;;;;14.85;11.28;;;;;;;4.27;76.19;94023.25;1661215;84;21107;-47
2022/12/07 08:31:12;;;;;;;17.30;13.08;;;;;;;4.28;76.43;94016.61;1718373;81;21292;-47
2022/12/07 08:33:39;;;;;;;24.10;16.90;;;;;;;4.31;76.68;94020.45;1701734;81;21114;-48
2022/12/07 08:36:10;;;;;;;13.48;11.83;;;;;;;4.31;76.58;94013.06;1742438;80;21099;-47
2022/12/07 08:38:38;;;;;;;17.52;14.13;;;;;;;4.29;76.85;94017.39;1741113;81;21075;-48
2022/12/07 08:41:05;;;;;;;42.17;26.35;;;;;;;4.25;77.02;94003.86;1743480;80;21160;-49
2022/12/07 08:43:34;;;;;;;28.27;20.32;;;;;;;4.30;76.48;94000.65;1744986;80;21333;-47
2022/12/07 08:46:19;;;;;;;25.27;17.48;;;;;;;4.38;75.84;94002.61;1685131;84;21128;-46
2022/12/07 08:48:59;;;;;;;33.20;22.00;;;;;;;4.45;75.80;93997.73;1738391;79;21186;-48
2022/12/07 08:51:26;;;;;;;18.40;14.15;;;;;;;4.60;75.38;93988.02;1693089;82;21077;-49
2022/12/07 08:53:53;;;;;;;20.62;16.23;;;;;;;4.76;74.93;93992.09;1704329;82;21073;-49
2022/12/07 08:56:21;;;;;;;20.45;16.75;;;;;;;4.93;74.72;93992.23;1666010;82;21164;-49
2022/12/07 08:58:48;;;;;;;28.00;22.87;;;;;;;5.14;74.86;93994.39;1711464;81;21635;-50
2022/12/07 09:01:15;;;;;;;22.20;18.40;;;;;;;5.39;74.69;94006.77;1742189;81;21688;-59
2022/12/07 09:03:41;;;;;;;15.45;12.63;;;;;;;5.62;74.25;94011.95;1740350;80;21127;-47
2022/12/07 09:06:08;;;;;;;21.33;15.95;;;;;;;5.84;74.07;94011.53;1752559;81;21147;-46
2022/12/07 09:08:41;;;;;;;26.52;19.30;;;;;;;6.01;73.15;94008.88;1760797;78;21284;-48
2022/12/07 09:11:07;;;;;;;16.93;14.78;;;;;;;6.21;72.51;94002.02;1679955;83;21042;-46
2022/12/07 09:13:37;;;;;;;13.48;11.60;;;;;;;6.42;71.65;94008.77;1677182;83;21097;-46
2022/12/07 09:16:05;;;;;;;8.03;7.22;;;;;;;6.57;69.53;94007.12;1680032;83;21128;-48
2022/12/07 09:18:32;;;;;;;7.62;6.92;;;;;;;6.52;67.67;93996.76;1688115;83;21103;-48
2022/12/07 09:20:59;;;;;;;7.37;6.72;;;;;;;6.44;67.01;93981.78;1663679;84;21242;-46
2022/12/07 09:23:26;;;;;;;8.63;7.83;;;;;;;6.37;66.82;93990.21;1687936;83;21101;-49
2022/12/07 09:25:53;;;;;;;6.83;6.22;;;;;;;6.32;66.70;93982.58;1713856;82;21045;-47
2022/12/07 09:28:21;;;;;;;6.22;5.72;;;;;;;6.38;66.55;93978.08;1705706;82;21061;-49
2022/12/07 09:30:48;;;;;;;8.40;6.70;;;;;;;6.51;65.11;93976.11;1725942;81;21070;-47
2022/12/07 09:33:15;;;;;;;10.18;8.48;;;;;;;6.53;65.16;93970.96;1715725;82;21244;-55
2022/12/07 09:35:50;;;;;;;7.55;6.62;;;;;;;6.52;65.12;93963.97;1711635;82;21129;-48
2022/12/07 09:38:17;;;;;;;6.28;5.67;;;;;;;6.57;64.87;93968.88;1666409;82;21211;-52
2022/12/07 09:40:43;;;;;;;6.08;5.53;;;;;;;6.73;64.29;93963.27;1613483;85;21158;-49
2022/12/07 09:43:19;;;;;;;5.85;5.25;;;;;;;6.69;63.53;93957.91;1606814;87;21502;-49
2022/12/07 09:45:48;;;;;;;6.83;6.08;;;;;;;6.61;63.38;93966.78;1611322;86;21346;-49
2022/12/07 09:48:24;;;;;;;8.30;6.80;;;;;;;6.51;63.10;93962.44;1678294;84;21121;-48
2022/12/07 09:50:50;;;;;;;8.63;7.08;;;;;;;6.41;61.99;93962.17;1581478;87;21581;-55
2022/12/07 09:53:30;;;;;;;11.45;8.45;;;;;;;6.29;61.52;93954.16;1600411;87;21148;-47
2022/12/07 09:55:57;;;;;;;7.12;5.70;;;;;;;6.20;62.11;93954.66;1581573;87;21153;-46
2022/12/07 09:58:26;;;;;;;9.15;8.00;;;;;;;6.15;61.89;93955.22;1572992;88;21364;-48
2022/12/07 10:01:03;;;;;;;10.88;9.70;;;;;;;6.15;62.42;93963.41;1563231;89;21124;-51
2022/12/07 10:03:31;;;;;;;5.22;4.83;;;;;;;6.08;62.58;93952.10;1539488;90;21239;-49
2022/12/07 10:05:58;;;;;;;5.00;4.60;;;;;;;6.01;62.63;93946.84;1561012;90;21160;-48
2022/12/07 10:08:25;;;;;;;5.05;4.62;;;;;;;5.93;63.02;93952.37;1550751;90;21219;-51
2022/12/07 10:10:56;;;;;;;8.05;7.12;;;;;;;5.91;63.25;93964.91;1540593;91;21705;-50
2022/12/07 10:13:36;;;;;;;8.25;6.17;;;;;;;5.82;63.34;93953.28;1554284;90;21385;-51
2022/12/07 10:16:04;;;;;;;5.05;4.60;;;;;;;5.79;63.47;93947.95;1562114;91;21107;-50
2022/12/07 10:18:38;;;;;;;5.67;5.22;;;;;;;5.91;63.58;93949.31;1569947;89;21338;-49
2022/12/07 10:21:16;;;;;;;5.80;5.30;;;;;;;6.08;63.34;93934.94;1531586;91;21575;-58
2022/12/07 10:24:04;;;;;;;5.62;5.03;;;;;;;6.10;62.98;93942.88;1573538;89;22077;-49
2022/12/07 10:26:38;;;;;;;6.20;5.70;;;;;;;6.29;63.23;93932.90;1553868;90;21149;-51
2022/12/07 10:29:30;;;;;;;6.78;4.92;;;;;;;6.48;61.40;93934.02;1553363;90;21477;-50
2022/12/07 10:32:18;;;;;;;5.25;4.75;;;;;;;6.49;61.25;93932.81;1509314;92;21651;-48
2022/12/07 10:34:46;;;;;;;5.35;4.67;;;;;;;6.46;61.20;93922.78;1503776;93;21608;-49
2022/12/07 10:37:17;;;;;;;11.08;6.33;;;;;;;6.40;61.02;93926.50;1483248;93;21259;-51
2022/12/07 10:39:56;;;;;;;7.87;5.80;;;;;;;6.38;60.72;93924.23;1479441;95;28407;-50
2022/12/07 10:42:30;;;;;;;5.12;4.30;;;;;;;6.30;60.56;93924.89;1467088;95;21143;-48
2022/12/07 10:45:15;;;;;;;5.65;5.10;;;;;;;6.18;60.78;93920.95;1474890;95;21695;-48
2022/12/07 10:47:56;;;;;;;8.38;4.80;;;;;;;6.09;61.19;93939.98;1521170;90;21676;-51
2022/12/07 10:50:48;;;;;;;4.35;4.03;;;;;;;6.03;61.85;93939.59;1565462;91;21271;-48
2022/12/07 10:53:30;;;;;;;4.77;4.37;;;;;;;6.00;61.53;93941.84;1467422;96;21166;-51
2022/12/07 10:56:13;;;;;;;4.85;4.35;;;;;;;5.96;61.97;93940.58;1457357;97;21888;-50
2022/12/07 10:58:52;;;;;;;7.42;4.83;;;;;;;5.93;62.25;93938.72;1375114;102;21576;-47
2022/12/07 11:01:53;;;;;;;7.47;6.05;;;;;;;5.89;62.38;93942.75;1420287;97;21281;-49
2022/12/07 11:05:01;;;;;;;11.63;8.60;;;;;;;5.89;62.52;93942.75;1475117;94;23242;-50
2022/12/07 11:08:02;;;;;;;12.88;8.48;;;;;;;5.82;62.28;93942.36;1464572;97;21052;-50
2022/12/07 11:10:57;;;;;;;8.38;6.65;;;;;;;5.71;63.24;93942.50;1507478;94;21170;-48
2022/12/07 11:13:30;;;;;;;5.85;4.92;;;;;;;5.57;63.60;93947.03;1525814;93;21177;-49
2022/12/07 11:16:08;;;;;;;5.25;4.85;;;;;;;5.49;64.06;93942.95;1528949;93;21134;-47
2022/12/07 11:19:17;;;;;;;5.72;5.22;;;;;;;5.38;65.00;93942.52;1528059;92;21215;-47
2022/12/07 11:21:59;;;;;;;8.15;5.70;;;;;;;5.28;65.91;93934.78;1524727;92;21032;-49
2022/12/07 11:24:58;;;;;;;13.20;7.17;;;;;;;5.25;66.86;93933.53;1469698;94;21657;-48
2022/12/07 11:27:39;;;;;;;10.48;7.78;;;;;;;5.23;67.46;93931.84;1449204;97;21286;-50
2022/12/07 11:30:35;;;;;;;10.75;8.78;;;;;;;5.25;67.69;93936.27;1455917;96;21112;-49
2022/12/07 11:33:11;;;;;;;6.45;5.85;;;;;;;5.30;67.60;93931.63;1431616;99;21400;-48
2022/12/07 11:36:05;;;;;;;8.50;6.17;;;;;;;5.36;66.67;93933.98;1411552;100;21680;-48
2022/12/07 11:38:40;;;;;;;8.28;6.53;;;;;;;5.36;66.19;93932.62;1396811;101;21206;-51
2022/12/07 11:41:15;;;;;;;6.90;5.70;;;;;;;5.35;65.86;93933.81;1386164;102;21253;-47
2022/12/07 11:43:54;;;;;;;7.72;5.58;;;;;;;5.34;65.79;93937.74;1375010;102;21184;-47
2022/12/07 11:46:24;;;;;;;5.92;5.35;;;;;;;5.31;66.28;93930.43;1332176;105;21262;-49
2022/12/07 11:49:21;;;;;;;7.47;5.87;;;;;;;5.27;66.21;93924.33;1340993;105;21276;-50
2022/12/07 11:51:50;;;;;;;14.47;10.15;;;;;;;5.29;66.13;93932.83;1422037;98;21210;-49
2022/12/07 11:54:27;;;;;;;9.68;7.37;;;;;;;5.26;66.08;93930.36;1412792;100;21197;-46
2022/12/07 11:56:54;;;;;;;11.33;8.88;;;;;;;5.26;66.29;93933.09;1423422;98;22532;-48
2022/12/07 11:59:35;;;;;;;11.22;7.75;;;;;;;5.26;66.51;93928.25;1414618;99;21312;-47
2022/12/07 12:02:14;;;;;;;7.70;5.45;;;;;;;5.29;66.46;93926.79;1438427;98;28381;-49
2022/12/07 12:04:58;;;;;;;7.62;5.80;;;;;;;5.29;66.56;93926.79;1399678;101;21201;-45
2022/12/07 12:07:27;;;;;;;12.28;8.60;;;;;;;5.34;66.80;93925.47;1361099;104;21387;-46
2022/12/07 12:10:02;;;;;;;10.40;7.08;;;;;;;5.36;66.77;93923.85;1343601;106;21580;-46
2022/12/07 12:13:05;;;;;;;12.98;8.23;;;;;;;5.38;66.73;93922.06;1343404;105;21339;-49
2022/12/07 12:15:45;;;;;;;13.43;9.28;;;;;;;5.39;66.88;93918.14;1317259;106;21169;-46
2022/12/07 12:18:34;;;;;;;20.27;11.50;;;;;;;5.37;66.89;93917.20;1329557;105;21728;-50
2022/12/07 12:21:06;;;;;;;15.72;11.40;;;;;;;5.40;67.07;93912.84;1373950;102;21158;-52
2022/12/07 12:23:41;;;;;;;18.10;12.65;;;;;;;5.45;66.93;93909.58;1380852;102;21136;-49
2022/12/07 12:26:19;;;;;;;25.75;15.50;;;;;;;5.49;66.71;93908.87;1399109;101;21372;-46
2022/12/07 12:29:02;;;;;;;21.90;14.25;;;;;;;5.55;66.61;93900.30;1426490;98;21132;-46
2022/12/07 12:31:39;;;;;;;24.87;15.53;;;;;;;5.62;66.47;93904.20;1422779;98;21148;-46
2022/12/07 12:34:40;;;;;;;25.23;12.90;;;;;;;5.58;66.30;93898.84;1407104;99;21653;-47
2022/12/07 12:37:39;;;;;;;19.48;14.00;;;;;;;5.54;66.47;93894.09;1484307;95;21172;-50
2022/12/07 12:40:22;;;;;;;14.60;12.55;;;;;;;5.48;66.88;93897.80;1479259;96;21310;-52
2022/12/07 12:42:55;;;;;;;10.85;9.48;;;;;;;5.40;67.20;93897.85;1488684;93;21171;-51
2022/12/07 12:45:24;;;;;;;;;;;;;;;5.43;67.39;93907.89;1591843;88;21188;-48
2022/12/07 12:48:04;;;;;;;29.67;20.68;;;;;;;5.46;67.44;93913.83;1602744;88;20158;-45
2022/12/07 12:50:39;;;;;;;25.48;18.40;;;;;;;5.46;67.67;93909.13;1604869;87;21044;-46
2022/12/07 12:53:20;;;;;;;34.27;19.20;;;;;;;5.52;68.02;93908.77;1645228;85;21309;-50
2022/12/07 12:56:10;;;;;;;27.15;18.00;;;;;;;5.59;67.67;93899.61;1648253;85;21080;-49
2022/12/07 12:58:40;;;;;;;23.75;15.03;;;;;;;5.58;67.72;93901.56;1670349;83;21096;-49
2022/12/07 13:01:38;;;;;;;23.10;15.40;;;;;;;5.62;67.61;93898.73;1670012;83;21112;-47
2022/12/07 13:04:19;;;;;;;33.42;22.55;;;;;;;5.63;67.41;93902.99;1619746;86;21584;-47
2022/12/07 13:06:47;;;;;;;32.15;21.50;;;;;;;5.68;67.06;93906.53;1546939;90;21387;-48
2022/12/07 13:09:34;;;;;;;23.90;16.48;;;;;;;5.70;66.76;93906.86;1522830;91;21634;-48
2022/12/07 13:12:05;;;;;;;24.12;16.37;;;;;;;5.74;66.85;93904.20;1503360;93;21220;-50
2022/12/07 13:14:56;;;;;;;38.88;22.60;;;;;;;5.82;66.74;93904.16;1454481;96;21117;-49
2022/12/07 13:17:39;;;;;;;98.10;45.33;;;;;;;5.89;67.00;93905.32;1428522;98;21214;-49
2022/12/07 13:20:07;;;;;;;72.35;37.95;;;;;;;5.97;67.28;93903.88;1437837;98;21334;-54
2022/12/07 13:22:42;;;;;;;39.35;22.50;;;;;;;5.93;67.48;93910.06;1446980;97;21711;-48
2022/12/07 13:25:33;;;;;;;42.03;21.93;;;;;;;5.93;67.36;93914.77;1467121;93;21607;-48
2022/12/07 13:28:16;;;;;;;;;;;;;;;5.84;67.81;93916.02;1445469;96;21182;-47
2022/12/07 13:31:15;;;;;;;13.78;9.25;;;;;;;5.80;68.55;93922.19;1442409;97;20180;-50
2022/12/07 13:33:46;;;;;;;28.62;20.32;;;;;;;5.69;68.64;93922.48;1432059;98;21227;-47
2022/12/07 13:36:24;;;;;;;26.85;18.82;;;;;;;5.66;68.90;93918.48;1459715;95;21171;-48
2022/12/07 13:38:59;;;;;;;27.00;18.37;;;;;;;5.66;68.90;93921.22;1455479;95;21651;-48
2022/12/07 13:41:28;;;;;;;26.20;17.67;;;;;;;5.67;69.03;93924.11;1465593;95;21214;-48
2022/12/07 13:44:15;;;;;;;20.45;13.00;;;;;;;5.72;68.98;93916.15;1485712;93;21637;-47
2022/12/07 13:46:54;;;;;;;30.92;18.90;;;;;;;5.74;68.65;93917.84;1512408;92;21187;-47
2022/12/07 13:49:30;;;;;;;29.98;16.80;;;;;;;5.68;69.00;93915.50;1496761;94;21078;-47
2022/12/07 13:52:22;;;;;;;34.27;19.67;;;;;;;5.68;69.27;93922.32;1485322;94;21286;-47
2022/12/07 13:54:56;;;;;;;43.17;23.47;;;;;;;5.72;69.29;93927.65;1484286;94;21213;-51
2022/12/07 13:57:25;;;;;;;34.30;20.20;;;;;;;5.79;69.20;93923.39;1503270;93;21116;-45
2022/12/07 13:59:52;;;;;;;60.75;31.35;;;;;;;5.87;69.10;93921.95;1507341;94;21259;-47
2022/12/07 14:02:31;;;;;;;59.45;31.75;;;;;;;5.92;68.94;93920.04;1490770;94;21139;-47
2022/12/07 14:05:14;;;;;;;42.03;26.07;;;;;;;5.85;68.87;93918.32;1534835;89;21175;-46
2022/12/07 14:08:00;;;;;;;31.57;21.33;;;;;;;5.81;69.20;93920.98;1587522;89;21567;-49
2022/12/07 14:10:33;;;;;;;46.77;28.98;;;;;;;5.81;69.34;93918.25;1582759;87;21088;-50
2022/12/07 14:13:02;;;;;;;48.30;27.17;;;;;;;5.74;69.49;93918.42;1635871;86;21232;-48
2022/12/07 14:15:33;;;;;;;83.67;36.63;;;;;;;5.68;69.82;93912.77;1662149;83;21140;-47
2022/12/07 14:18:03;;;;;;;106.80;51.50;;;;;;;5.73;70.04;93912.80;1679723;82;21073;-47
2022/12/07 14:20:37;;;;;;;59.85;30.70;;;;;;;5.81;69.79;93927.19;1644650;85;21200;-49
2022/12/07 14:23:10;;;;;;;50.43;29.80;;;;;;;5.80;69.62;93918.09;1644796;85;21099;-46
2022/12/07 14:25:48;;;;;;;72.82;40.88;;;;;;;5.71;69.69;93916.57;1661374;83;21287;-49
2022/12/07 14:28:30;;;;;;;61.20;38.15;;;;;;;5.68;69.96;93922.91;1676654;83;21053;-47
2022/12/07 14:30:58;;;;;;;64.22;34.75;;;;;;;5.64;70.28;93914.06;1670541;84;21072;-45
2022/12/07 14:33:25;;;;;;;51.40;28.00;;;;;;;5.62;70.27;93919.20;1671847;84;21515;-46
2022/12/07 14:35:55;;;;;;;50.10;28.27;;;;;;;5.52;70.66;93915.59;1643759;82;21123;-49
2022/12/07 14:38:22;;;;;;;56.08;31.60;;;;;;;5.53;71.08;93914.39;1656899;84;21233;-45
2022/12/07 14:40:49;;;;;;;101.97;47.55;;;;;;;5.59;70.87;93918.09;1674576;84;21076;-47
2022/12/07 14:43:17;;;;;;;114.20;50.28;;;;;;;5.56;70.94;93917.61;1684159;83;21791;-45
2022/12/07 14:45:43;;;;;;;90.28;42.75;;;;;;;5.52;71.18;93922.41;1713789;80;21624;-47
2022/12/07 14:48:13;;;;;;;75.28;35.52;;;;;;;5.52;71.34;93931.17;1759303;78;21044;-47
2022/12/07 14:50:47;;;;;;;93.22;46.05;;;;;;;5.48;71.38;93925.06;1792574;78;21139;-50
2022/12/07 14:53:16;;;;;;;67.05;37.53;;;;;;;5.43;71.48;93929.70;1740232;80;21145;-49
2022/12/07 14:55:44;;;;;;;99.90;53.25;;;;;;;5.33;71.94;93928.81;1668296;83;21723;-48
2022/12/07 14:58:13;;;;;;;117.13;60.95;;;;;;;5.32;72.47;93921.83;1696075;82;21096;-48
2022/12/07 15:00:43;;;;;;;112.72;56.63;;;;;;;5.39;72.44;93929.05;1664732;83;21176;-46
2022/12/07 15:03:12;;;;;;;130.95;63.52;;;;;;;5.39;72.43;93924.95;1704328;83;21096;-47